Time;durP1;ratioP1;P1;durP2;ratioP2;P2;SDS_P1;SDS_P2;PMS_P1;PMS_P2;Temp;Humidity;BMP_temperature;BMP_pressure;BME280_temperature;BME280_humidity;BME280_pressure;Samples;Min_cycle;Max_cycle;Signal;HPM_P1;HPM_P2
2022/05/16 00:00:57;;;;;;;;;;;13.20;99.90;;;;;;5094887;28;20401;-69
2022/05/16 00:03:24;;;;;;;;;;;13.20;99.90;;;;;;5088928;28;19924;-69
2022/05/16 00:05:49;;;;;;;;;;;13.20;99.90;;;;;;5085391;28;20406;-71
2022/05/16 00:08:15;;;;;;;;;;;13.20;99.90;;;;;;5106437;28;19959;-70
2022/05/16 00:10:40;;;;;;;;;;;13.10;99.90;;;;;;5109112;28;19958;-69
2022/05/16 00:13:06;;;;;;;;;;;13.10;99.90;;;;;;5105047;28;19924;-69
2022/05/16 00:15:32;;;;;;;;;;;13.10;99.90;;;;;;5088866;28;19954;-70
2022/05/16 00:17:57;;;;;;;;;;;13.10;99.90;;;;;;5088699;28;20382;-67
2022/05/16 00:20:23;;;;;;;;;;;13.10;99.90;;;;;;5105092;28;20327;-70
2022/05/16 00:22:48;;;;;;;;;;;13.10;99.90;;;;;;5109091;28;19930;-72
2022/05/16 00:25:15;;;;;;;;;;;13.10;99.90;;;;;;5107360;28;19919;-72
2022/05/16 00:27:41;;;;;;;;;;;13.00;99.90;;;;;;5108238;28;19919;-70
2022/05/16 00:30:08;;;;;;;;;;;13.00;99.90;;;;;;5107891;28;19927;-68
2022/05/16 00:32:33;;;;;;;;;;;13.00;99.90;;;;;;5091231;28;19942;-70
2022/05/16 00:34:59;;;;;;;;;;;13.00;99.90;;;;;;5105292;28;19924;-71
2022/05/16 00:37:24;;;;;;;;;;;13.00;99.90;;;;;;5102546;28;19946;-69
2022/05/16 00:39:50;;;;;;;;;;;13.00;99.90;;;;;;5067750;28;19920;-70
2022/05/16 00:42:17;;;;;;;;;;;12.90;99.90;;;;;;5069091;28;19921;-68
2022/05/16 00:44:42;;;;;;;;;;;12.90;99.90;;;;;;5076206;28;20386;-68
2022/05/16 00:47:08;;;;;;;;;;;12.90;99.90;;;;;;5088942;28;19920;-70
2022/05/16 00:49:35;;;;;;;;;;;12.90;99.90;;;;;;5088262;28;20465;-70
2022/05/16 00:52:02;;;;;;;;;;;12.90;99.90;;;;;;5088805;28;19928;-68
2022/05/16 00:54:32;;;;;;;;;;;12.90;99.90;;;;;;5073701;28;19933;-70
2022/05/16 00:57:05;;;;;;;;;;;12.90;99.90;;;;;;5088596;28;19927;-70
2022/05/16 00:59:46;;;;;;;;;;;12.80;99.90;;;;;;5088153;28;19949;-70
2022/05/16 01:04:56;;;;;;;;;;;12.80;99.90;;;;;;5090439;28;19965;-70
2022/05/16 01:07:27;;;;;;;;;;;12.80;99.90;;;;;;5090909;28;19920;-70
2022/05/16 01:09:53;;;;;;;;;;;12.80;99.90;;;;;;5091898;28;19923;-70
2022/05/16 01:12:19;;;;;;;;;;;12.70;99.90;;;;;;5126246;27;19927;-70
2022/05/16 01:14:52;;;;;;;;;;;12.70;99.90;;;;;;5091605;28;19935;-71
2022/05/16 01:17:18;;;;;;;;;;;12.70;99.90;;;;;;5091558;28;20276;-71
2022/05/16 01:19:44;;;;;;;;;;;12.70;99.90;;;;;;5091325;28;19928;-71
2022/05/16 01:22:45;;;;;;;;;;;12.60;99.90;;;;;;5092000;28;19980;-71
2022/05/16 01:25:13;;;;;;;;;;;12.60;99.90;;;;;;5016508;28;19922;-70
2022/05/16 01:27:49;;;;;;;;;;;12.60;99.90;;;;;;5065398;28;19921;-69
2022/05/16 01:30:16;;;;;;;;;;;12.50;99.90;;;;;;5054233;28;19920;-71
2022/05/16 01:32:42;;;;;;;;;;;12.50;99.90;;;;;;5070874;28;19963;-70
2022/05/16 01:35:08;;;;;;;;;;;12.50;99.90;;;;;;5054647;28;20418;-70
2022/05/16 01:40:17;;;;;;;;;;;12.40;99.90;;;;;;5070608;28;20402;-71
2022/05/16 01:42:43;;;;;;;;;;;12.40;99.90;;;;;;5089920;28;19920;-71
2022/05/16 01:45:08;;;;;;;;;;;12.40;99.90;;;;;;5106548;28;19969;-69
2022/05/16 01:47:34;;;;;;;;;;;12.40;99.90;;;;;;5091079;28;20288;-71
2022/05/16 01:50:00;;;;;;;;;;;12.30;99.90;;;;;;5090113;28;19973;-71
2022/05/16 01:52:26;;;;;;;;;;;12.30;99.90;;;;;;5091804;28;20431;-71
2022/05/16 01:54:51;;;;;;;;;;;12.30;99.90;;;;;;5091158;28;20190;-71
2022/05/16 01:57:17;;;;;;;;;;;12.30;99.90;;;;;;5089504;28;19924;-71
2022/05/16 01:59:42;;;;;;;;;;;12.30;99.90;;;;;;5090828;28;20383;-72
2022/05/16 02:02:08;;;;;;;;;;;12.20;99.90;;;;;;5089133;28;19999;-71
2022/05/16 02:04:33;;;;;;;;;;;12.20;99.90;;;;;;5090644;28;20199;-71
2022/05/16 02:06:58;;;;;;;;;;;12.20;99.90;;;;;;5090437;28;19935;-71
2022/05/16 02:09:24;;;;;;;;;;;12.10;99.90;;;;;;5090544;28;20057;-70
2022/05/16 02:11:50;;;;;;;;;;;12.20;99.90;;;;;;5090442;28;19920;-69
2022/05/16 02:14:15;;;;;;;;;;;12.10;99.90;;;;;;5089314;28;19931;-70
2022/05/16 02:16:41;;;;;;;;;;;12.10;99.90;;;;;;5090139;28;19924;-69
2022/05/16 02:19:06;;;;;;;;;;;12.10;99.90;;;;;;5078546;28;19921;-69
2022/05/16 02:27:00;;;;;;;;;;;12.00;99.90;;;;;;5070603;28;19974;-69
2022/05/16 02:29:25;;;;;;;;;;;12.00;99.90;;;;;;5070045;28;20379;-68
2022/05/16 02:31:51;;;;;;;;;;;11.90;99.90;;;;;;5069275;28;19921;-71
2022/05/16 02:34:16;;;;;;;;;;;11.90;99.90;;;;;;5081958;28;19982;-70
2022/05/16 02:36:42;;;;;;;;;;;11.90;99.90;;;;;;5089382;28;19920;-69
2022/05/16 02:39:08;;;;;;;;;;;11.90;99.90;;;;;;5088723;28;19920;-69
2022/05/16 02:41:33;;;;;;;;;;;11.90;99.90;;;;;;5090626;28;20444;-71
2022/05/16 02:43:59;;;;;;;;;;;11.90;99.90;;;;;;5090336;28;19920;-69
2022/05/16 02:46:24;;;;;;;;;;;11.90;99.90;;;;;;5087564;28;20362;-70
2022/05/16 02:48:50;;;;;;;;;;;11.80;99.90;;;;;;5117178;27;19976;-70
2022/05/16 02:51:15;;;;;;;;;;;11.80;99.90;;;;;;5104109;28;20278;-71
2022/05/16 02:53:41;;;;;;;;;;;11.80;99.90;;;;;;5103257;28;20220;-70
2022/05/16 02:56:06;;;;;;;;;;;11.80;99.90;;;;;;5103441;28;19928;-71
2022/05/16 02:58:32;;;;;;;;;;;11.80;99.90;;;;;;5102643;27;19920;-71
2022/05/16 03:00:57;;;;;;;;;;;11.80;99.90;;;;;;5086097;28;20279;-72
2022/05/16 03:03:23;;;;;;;;;;;11.80;99.90;;;;;;5073985;28;19931;-71
2022/05/16 03:05:49;;;;;;;;;;;11.80;99.90;;;;;;5068937;28;19924;-70
2022/05/16 03:08:14;;;;;;;;;;;11.80;99.90;;;;;;5063747;28;19930;-71
2022/05/16 03:10:40;;;;;;;;;;;11.80;99.90;;;;;;5105405;28;20023;-69
2022/05/16 03:13:06;;;;;;;;;;;11.80;99.90;;;;;;5108866;28;19932;-71
2022/05/16 03:15:32;;;;;;;;;;;11.80;99.90;;;;;;5096495;28;20450;-70
2022/05/16 03:17:58;;;;;;;;;;;11.80;99.90;;;;;;5091964;28;19920;-69
2022/05/16 03:20:23;;;;;;;;;;;11.70;99.90;;;;;;5081112;28;20370;-71
2022/05/16 03:22:48;;;;;;;;;;;11.70;99.90;;;;;;5089974;28;19965;-71
2022/05/16 03:25:14;;;;;;;;;;;11.70;99.90;;;;;;5086632;28;19924;-69
2022/05/16 03:27:39;;;;;;;;;;;11.70;99.90;;;;;;5084028;28;20271;-68
2022/05/16 03:30:07;;;;;;;;;;;11.70;99.90;;;;;;5093831;28;19976;-70
2022/05/16 03:32:33;;;;;;;;;;;11.70;99.90;;;;;;5102503;28;19950;-72
2022/05/16 03:34:58;;;;;;;;;;;11.70;99.90;;;;;;5103954;28;20371;-70
2022/05/16 03:37:24;;;;;;;;;;;11.70;99.90;;;;;;5086389;28;19924;-70
2022/05/16 03:42:34;;;;;;;;;;;11.70;99.90;;;;;;5088368;28;19970;-70
2022/05/16 03:44:59;;;;;;;;;;;11.70;99.90;;;;;;5086875;28;19928;-70
2022/05/16 03:47:25;;;;;;;;;;;11.70;99.90;;;;;;5089697;28;19927;-72
2022/05/16 03:49:51;;;;;;;;;;;11.70;99.90;;;;;;5090176;28;20374;-70
2022/05/16 03:52:16;;;;;;;;;;;11.70;99.90;;;;;;5107136;28;19919;-71
2022/05/16 03:54:42;;;;;;;;;;;11.70;99.90;;;;;;5107812;28;19923;-69
2022/05/16 03:57:07;;;;;;;;;;;11.70;99.90;;;;;;5091688;28;20264;-70
2022/05/16 03:59:33;;;;;;;;;;;11.70;99.90;;;;;;5099203;28;19981;-70
2022/05/16 04:01:58;;;;;;;;;;;11.80;99.90;;;;;;5093010;28;19943;-69
2022/05/16 04:04:24;;;;;;;;;;;11.80;99.90;;;;;;5095066;28;19920;-70
2022/05/16 04:06:50;;;;;;;;;;;11.80;99.90;;;;;;5104816;28;19925;-69
2022/05/16 04:09:15;;;;;;;;;;;11.80;99.90;;;;;;5087246;28;20432;-68
2022/05/16 04:11:41;;;;;;;;;;;11.80;99.90;;;;;;5085698;28;20086;-70
2022/05/16 04:14:07;;;;;;;;;;;11.90;99.90;;;;;;5081879;28;19935;-69
2022/05/16 04:16:33;;;;;;;;;;;11.90;99.90;;;;;;5082855;28;19989;-70
2022/05/16 04:18:58;;;;;;;;;;;12.00;99.90;;;;;;5087110;28;19955;-70
2022/05/16 04:21:24;;;;;;;;;;;12.00;99.90;;;;;;5088880;28;19924;-70
2022/05/16 04:23:49;;;;;;;;;;;12.00;99.90;;;;;;5083074;28;20207;-70
2022/05/16 04:26:15;;;;;;;;;;;12.10;99.90;;;;;;5095317;28;19946;-69
2022/05/16 04:28:40;;;;;;;;;;;12.10;99.90;;;;;;5107207;28;19966;-69
2022/05/16 04:31:06;;;;;;;;;;;12.10;99.90;;;;;;5106064;28;19942;-69
2022/05/16 04:33:35;;;;;;;;;;;12.10;99.90;;;;;;5107067;28;19973;-70
2022/05/16 04:36:01;;;;;;;;;;;12.20;99.90;;;;;;5096042;28;19935;-67
2022/05/16 04:38:26;;;;;;;;;;;12.10;99.90;;;;;;5088020;28;19920;-70
2022/05/16 04:43:36;;;;;;;;;;;12.20;99.90;;;;;;5079650;28;19993;-69
2022/05/16 04:46:06;;;;;;;;;;;12.20;99.90;;;;;;5076428;28;19920;-68
2022/05/16 04:48:31;;;;;;;;;;;12.30;99.90;;;;;;5085366;28;19928;-68
2022/05/16 04:50:57;;;;;;;;;;;12.30;99.90;;;;;;5112685;27;19920;-68
2022/05/16 04:53:22;;;;;;;;;;;12.30;99.90;;;;;;5088109;28;19924;-68
2022/05/16 04:55:48;;;;;;;;;;;12.40;99.90;;;;;;5092102;28;19932;-69
2022/05/16 04:58:14;;;;;;;;;;;12.40;99.90;;;;;;5087389;28;20018;-68
2022/05/16 05:00:39;;;;;;;;;;;12.50;99.90;;;;;;5092244;28;20454;-69
2022/05/16 05:03:04;;;;;;;;;;;12.60;99.90;;;;;;5089370;28;19920;-68
2022/05/16 05:05:30;;;;;;;;;;;12.70;99.90;;;;;;5089409;28;20003;-69
2022/05/16 05:07:55;;;;;;;;;;;12.80;99.90;;;;;;5088707;28;19921;-68
2022/05/16 05:15:53;;;;;;;;;;;12.90;99.90;;;;;;5109154;28;19931;-68
2022/05/16 05:18:19;;;;;;;;;;;12.90;99.90;;;;;;5085942;28;19963;-68
2022/05/16 05:20:45;;;;;;;;;;;13.00;99.90;;;;;;5092283;28;20350;-69
2022/05/16 05:23:10;;;;;;;;;;;13.10;99.90;;;;;;5096551;28;19920;-70
2022/05/16 05:25:36;;;;;;;;;;;13.20;99.90;;;;;;5087001;28;19927;-70
2022/05/16 05:28:02;;;;;;;;;;;13.40;99.90;;;;;;5086840;28;19920;-71
2022/05/16 05:30:29;;;;;;;;;;;13.50;99.90;;;;;;5079845;28;20031;-69
2022/05/16 05:32:54;;;;;;;;;;;13.70;99.90;;;;;;5078032;28;19997;-67
2022/05/16 05:35:20;;;;;;;;;;;13.80;99.90;;;;;;5080094;28;19928;-70
2022/05/16 05:37:45;;;;;;;;;;;13.90;99.90;;;;;;5077147;28;20383;-69
2022/05/16 05:40:11;;;;;;;;;;;14.10;99.90;;;;;;5074830;28;19924;-72
2022/05/16 05:42:37;;;;;;;;;;;14.10;99.90;;;;;;5081682;28;19931;-70
2022/05/16 05:45:03;;;;;;;;;;;14.30;99.90;;;;;;5111467;27;19928;-69
2022/05/16 05:47:31;;;;;;;;;;;14.40;99.90;;;;;;5112781;27;19968;-68
2022/05/16 05:49:56;;;;;;;;;;;14.60;99.90;;;;;;5076628;28;19949;-66
2022/05/16 05:52:22;;;;;;;;;;;14.70;99.90;;;;;;5077434;28;20379;-71
2022/05/16 05:54:47;;;;;;;;;;;14.90;99.90;;;;;;5069268;28;19974;-69
2022/05/16 05:57:14;;;;;;;;;;;15.00;99.90;;;;;;5080701;28;19927;-68
2022/05/16 05:59:40;;;;;;;;;;;15.10;99.90;;;;;;5074871;28;19921;-69
2022/05/16 06:02:07;;;;;;;;;;;15.20;99.90;;;;;;5079305;28;20515;-69
2022/05/16 06:04:32;;;;;;;;;;;15.30;99.90;;;;;;5084242;28;20298;-70
2022/05/16 06:06:58;;;;;;;;;;;15.50;99.90;;;;;;5066285;28;19926;-69
2022/05/16 06:09:24;;;;;;;;;;;15.60;99.90;;;;;;5090060;28;20042;-73
2022/05/16 06:11:50;;;;;;;;;;;15.70;99.90;;;;;;5074009;28;19919;-69
2022/05/16 06:14:16;;;;;;;;;;;15.90;99.90;;;;;;5079949;28;20347;-69
2022/05/16 06:16:41;;;;;;;;;;;16.00;99.90;;;;;;5094430;28;20414;-69
2022/05/16 06:19:08;;;;;;;;;;;16.10;99.90;;;;;;5090305;28;20012;-70
2022/05/16 06:21:34;;;;;;;;;;;16.20;99.90;;;;;;5091009;28;19920;-68
2022/05/16 06:24:00;;;;;;;;;;;16.30;99.90;;;;;;5091209;28;19920;-69
2022/05/16 06:26:25;;;;;;;;;;;16.40;99.90;;;;;;5071995;28;20267;-70
2022/05/16 06:28:51;;;;;;;;;;;16.40;99.90;;;;;;5081285;28;19920;-70
2022/05/16 06:31:16;;;;;;;;;;;16.50;99.90;;;;;;5073747;28;19924;-68
2022/05/16 06:33:46;;;;;;;;;;;16.60;99.90;;;;;;5091040;28;19931;-68
2022/05/16 06:36:12;;;;;;;;;;;16.70;99.90;;;;;;5090682;28;19923;-69
2022/05/16 06:38:37;;;;;;;;;;;16.80;99.90;;;;;;5082915;28;19924;-68
2022/05/16 06:41:03;;;;;;;;;;;17.00;99.90;;;;;;5079637;28;19927;-68
2022/05/16 06:43:29;;;;;;;;;;;17.10;99.90;;;;;;5087939;28;19920;-67
2022/05/16 06:45:55;;;;;;;;;;;17.30;99.90;;;;;;5091046;28;19920;-68
2022/05/16 06:48:20;;;;;;;;;;;17.40;99.90;;;;;;5097009;28;19928;-70
2022/05/16 06:50:46;;;;;;;;;;;17.50;99.90;;;;;;5091463;28;19920;-69
2022/05/16 06:53:23;;;;;;;;;;;17.70;99.90;;;;;;5095465;28;19921;-70
2022/05/16 06:55:48;;;;;;;;;;;17.80;99.90;;;;;;5109100;28;20286;-68
2022/05/16 06:58:13;;;;;;;;;;;18.00;99.90;;;;;;5108888;28;19924;-67
2022/05/16 07:00:39;;;;;;;;;;;18.10;99.90;;;;;;5084684;28;19928;-68
2022/05/16 07:03:05;;;;;;;;;;;18.30;99.90;;;;;;5067544;28;19927;-70
2022/05/16 07:05:31;;;;;;;;;;;18.30;99.90;;;;;;5090887;28;19927;-69
2022/05/16 07:07:57;;;;;;;;;;;18.50;99.90;;;;;;5090906;28;19920;-69
2022/05/16 07:10:23;;;;;;;;;;;18.60;99.90;;;;;;5117209;27;19924;-69
2022/05/16 07:12:49;;;;;;;;;;;18.70;99.90;;;;;;5086130;28;20383;-69
2022/05/16 07:15:14;;;;;;;;;;;18.80;99.90;;;;;;5093925;28;19938;-70
2022/05/16 07:17:40;;;;;;;;;;;18.90;99.90;;;;;;5086124;28;19931;-69
2022/05/16 07:20:05;;;;;;;;;;;19.00;99.90;;;;;;5089483;28;19921;-70
2022/05/16 07:22:31;;;;;;;;;;;19.20;99.90;;;;;;5088370;28;19920;-70
2022/05/16 07:24:58;;;;;;;;;;;19.30;99.90;;;;;;5085650;28;19920;-71
2022/05/16 07:30:08;;;;;;;;;;;19.60;99.90;;;;;;5087047;28;19942;-71
2022/05/16 07:32:35;;;;;;;;;;;19.80;99.90;;;;;;5092272;28;20380;-70
2022/05/16 07:35:01;;;;;;;;;;;19.90;99.90;;;;;;5072410;28;19928;-70
2022/05/16 07:37:27;;;;;;;;;;;20.10;99.90;;;;;;5122421;27;19927;-70
2022/05/16 07:39:52;;;;;;;;;;;20.10;99.90;;;;;;5097847;28;19934;-70
2022/05/16 07:42:18;;;;;;;;;;;20.20;99.90;;;;;;5091813;28;19959;-71
2022/05/16 07:44:43;;;;;;;;;;;20.30;99.90;;;;;;5109102;27;19920;-70
2022/05/16 07:47:09;;;;;;;;;;;20.50;99.90;;;;;;5088135;28;19920;-71
2022/05/16 07:49:34;;;;;;;;;;;20.60;99.90;;;;;;5115271;27;19928;-71
2022/05/16 07:52:00;;;;;;;;;;;20.70;99.90;;;;;;5088657;28;19924;-71
2022/05/16 07:54:25;;;;;;;;;;;20.80;99.90;;;;;;5100820;28;19963;-70
2022/05/16 07:56:50;;;;;;;;;;;20.90;99.90;;;;;;5107089;28;19920;-71
2022/05/16 07:59:16;;;;;;;;;;;21.00;99.90;;;;;;5105765;28;19920;-71
2022/05/16 08:01:42;;;;;;;;;;;21.10;99.90;;;;;;5105150;28;20006;-70
2022/05/16 08:04:08;;;;;;;;;;;21.20;99.90;;;;;;5097652;28;19943;-71
2022/05/16 08:06:34;;;;;;;;;;;21.30;99.90;;;;;;5093287;28;20252;-71
2022/05/16 08:11:44;;;;;;;;;;;21.70;99.90;;;;;;5114211;28;20053;-70
2022/05/16 08:14:11;;;;;;;;;;;21.80;99.90;;;;;;5095193;28;20052;-70
2022/05/16 08:16:37;;;;;;;;;;;21.90;99.90;;;;;;5102834;28;19926;-71
2022/05/16 08:19:02;;;;;;;;;;;22.00;99.90;;;;;;5090880;28;19920;-70
2022/05/16 08:21:28;;;;;;;;;;;22.10;99.90;;;;;;5116260;27;19951;-70
2022/05/16 08:23:53;;;;;;;;;;;22.20;99.90;;;;;;5095809;28;19919;-71
2022/05/16 08:26:19;;;;;;;;;;;22.30;99.90;;;;;;5104096;28;20374;-71
2022/05/16 08:28:44;;;;;;;;;;;22.30;99.90;;;;;;5071860;28;19924;-71
2022/05/16 08:31:10;;;;;;;;;;;22.40;99.90;;;;;;5116346;27;19973;-71
2022/05/16 08:33:36;;;;;;;;;;;22.50;99.90;;;;;;5091878;28;20018;-71
2022/05/16 08:41:35;;;;;;;;;;;22.90;99.90;;;;;;5088993;28;19984;-71
2022/05/16 08:44:08;;;;;;;;;;;23.00;99.90;;;;;;5091046;28;19931;-71
2022/05/16 08:46:35;;;;;;;;;;;23.00;97.70;;;;;;5086906;28;20379;-71
2022/05/16 08:49:08;;;;;;;;;;;23.10;99.90;;;;;;5091135;28;20353;-71
2022/05/16 08:51:33;;;;;;;;;;;23.20;99.90;;;;;;5091551;28;19920;-72
2022/05/16 08:54:04;;;;;;;;;;;23.40;99.90;;;;;;5092646;28;19973;-72
2022/05/16 08:56:31;;;;;;;;;;;23.50;99.90;;;;;;5088817;28;20438;-72
2022/05/16 08:59:00;;;;;;;;;;;23.70;98.50;;;;;;5120637;27;19921;-70
2022/05/16 09:01:28;;;;;;;;;;;23.80;99.60;;;;;;5102222;28;19970;-71
2022/05/16 09:04:01;;;;;;;;;;;23.90;99.90;;;;;;5092381;28;19920;-71
2022/05/16 09:06:34;;;;;;;;;;;23.90;99.90;;;;;;5093022;28;19920;-71
2022/05/16 09:09:16;;;;;;;;;;;23.90;99.90;;;;;;5071659;28;19924;-72
2022/05/16 09:12:00;;;;;;;;;;;23.90;99.90;;;;;;5084116;28;19924;-71
2022/05/16 09:14:35;;;;;;;;;;;24.00;99.90;;;;;;5074680;28;19920;-71
2022/05/16 09:17:02;;;;;;;;;;;24.10;97.70;;;;;;5090630;28;19930;-71
2022/05/16 09:19:48;;;;;;;;;;;24.20;99.90;;;;;;5092372;28;19989;-70
2022/05/16 09:22:26;;;;;;;;;;;24.30;99.90;;;;;;5098173;28;19931;-70
2022/05/16 09:24:58;;;;;;;;;;;24.50;99.90;;;;;;5086608;28;19968;-71
2022/05/16 09:30:19;;;;;;;;;;;24.70;99.60;;;;;;5091640;28;21368;-70
2022/05/16 09:32:48;;;;;;;;;;;24.70;98.60;;;;;;5103330;28;19930;-70
2022/05/16 09:35:28;;;;;;;;;;;24.70;97.70;;;;;;5092408;28;19924;-70
2022/05/16 09:37:55;;;;;;;;;;;24.70;97.70;;;;;;5082877;28;20011;-72
2022/05/16 09:40:24;;;;;;;;;;;24.70;95.90;;;;;;5090084;28;19924;-70
2022/05/16 09:42:50;;;;;;;;;;;24.50;99.90;;;;;;5092002;28;20358;-71
2022/05/16 09:45:22;;;;;;;;;;;24.40;99.90;;;;;;5112697;28;19923;-70
2022/05/16 09:47:48;;;;;;;;;;;24.40;99.90;;;;;;5094526;28;20366;-71
2022/05/16 09:50:21;;;;;;;;;;;24.40;99.90;;;;;;5091161;28;19975;-70
2022/05/16 09:53:01;;;;;;;;;;;24.50;99.90;;;;;;5092026;28;20290;-70
2022/05/16 09:55:27;;;;;;;;;;;24.60;99.90;;;;;;5073138;28;19966;-70
2022/05/16 09:57:57;;;;;;;;;;;24.60;99.90;;;;;;5088656;28;19924;-69
2022/05/16 10:00:30;;;;;;;;;;;24.50;99.90;;;;;;5071343;28;19924;-70
2022/05/16 10:02:59;;;;;;;;;;;24.40;99.90;;;;;;5090392;28;19920;-71
2022/05/16 10:05:27;;;;;;;;;;;24.20;99.90;;;;;;5123894;27;19924;-70
2022/05/16 10:08:01;;;;;;;;;;;24.10;99.90;;;;;;5091531;28;20304;-71
2022/05/16 10:10:29;;;;;;;;;;;24.00;99.90;;;;;;5092479;28;19924;-72
2022/05/16 10:12:57;;;;;;;;;;;23.80;99.90;;;;;;5085322;28;19927;-72
2022/05/16 10:15:22;;;;;;;;;;;23.60;99.90;;;;;;5106720;28;19928;-72
2022/05/16 10:17:49;;;;;;;;;;;23.40;99.90;;;;;;5081081;28;19924;-72
2022/05/16 10:20:17;;;;;;;;;;;23.20;99.90;;;;;;5085654;28;19924;-73
2022/05/16 10:22:42;;;;;;;;;;;23.00;99.90;;;;;;5091054;28;20007;-73
2022/05/16 10:25:10;;;;;;;;;;;22.80;99.90;;;;;;5091438;28;20410;-73
2022/05/16 10:27:36;;;;;;;;;;;22.80;99.90;;;;;;5091343;28;20263;-73
2022/05/16 10:30:06;;;;;;;;;;;22.70;99.90;;;;;;5075569;28;20458;-73
2022/05/16 10:35:24;;;;;;;;;;;22.70;99.90;;;;;;5124836;27;19935;-72
2022/05/16 10:37:52;;;;;;;;;;;22.70;99.90;;;;;;5090703;28;19920;-72
2022/05/16 10:40:27;;;;;;;;;;;22.70;99.90;;;;;;5090914;28;19928;-73
2022/05/16 10:43:09;;;;;;;;;;;22.80;99.90;;;;;;5088932;28;19924;-72
2022/05/16 10:45:35;;;;;;;;;;;22.70;99.90;;;;;;5072760;28;19920;-71
2022/05/16 10:48:17;;;;;;;;;;;22.70;99.90;;;;;;5104741;28;19936;-71
2022/05/16 10:50:53;;;;;;;;;;;22.60;99.90;;;;;;5103945;28;19921;-72
2022/05/16 10:53:18;;;;;;;;;;;22.60;99.90;;;;;;5103951;28;20367;-72
2022/05/16 10:55:53;;;;;;;;;;;22.70;99.90;;;;;;5113826;27;19931;-71
2022/05/16 10:58:19;;;;;;;;;;;22.70;99.90;;;;;;5090661;28;19974;-72
2022/05/16 11:01:00;;;;;;;;;;;22.80;99.90;;;;;;5088337;28;19920;-71
2022/05/16 11:03:44;;;;;;;;;;;22.90;99.90;;;;;;5100031;28;20003;-71
2022/05/16 11:06:20;;;;;;;;;;;23.00;99.90;;;;;;5092738;28;19928;-71
2022/05/16 11:08:46;;;;;;;;;;;23.10;99.90;;;;;;5092840;28;19926;-71
2022/05/16 11:11:21;;;;;;;;;;;23.10;99.90;;;;;;5087761;28;20007;-71
2022/05/16 11:13:54;;;;;;;;;;;23.20;99.90;;;;;;5109834;27;20019;-71
2022/05/16 11:16:24;;;;;;;;;;;23.30;99.90;;;;;;5099751;28;20324;-71
2022/05/16 11:19:12;;;;;;;;;;;23.30;99.90;;;;;;5068397;28;20007;-68
2022/05/16 11:21:47;;;;;;;;;;;23.20;99.90;;;;;;5093022;28;19948;-71
2022/05/16 11:24:24;;;;;;;;;;;23.20;99.90;;;;;;5076826;28;19947;-70
2022/05/16 11:26:53;;;;;;;;;;;23.10;99.90;;;;;;5109126;27;20312;-70
2022/05/16 11:29:18;;;;;;;;;;;23.00;99.90;;;;;;5080101;28;20390;-71
2022/05/16 11:31:52;;;;;;;;;;;22.80;99.90;;;;;;5069393;28;19925;-71
2022/05/16 11:34:22;;;;;;;;;;;22.70;99.90;;;;;;5081006;28;19977;-71
2022/05/16 11:36:57;;;;;;;;;;;22.70;99.90;;;;;;5072743;28;20350;-70
2022/05/16 11:39:46;;;;;;;;;;;22.60;99.90;;;;;;5089257;28;20006;-70
2022/05/16 11:42:19;;;;;;;;;;;22.50;99.90;;;;;;5089283;28;19920;-71
2022/05/16 11:45:00;;;;;;;;;;;22.50;99.90;;;;;;5090142;28;19920;-72
2022/05/16 11:47:35;;;;;;;;;;;22.50;99.90;;;;;;5079552;28;19928;-69
2022/05/16 11:50:17;;;;;;;;;;;22.50;99.90;;;;;;5067869;28;19924;-70
2022/05/16 11:52:57;;;;;;;;;;;22.50;99.90;;;;;;5103195;28;20011;-70
2022/05/16 12:01:03;;;;;;;;;;;22.50;99.90;;;;;;5068663;28;20393;-70
2022/05/16 12:03:41;;;;;;;;;;;22.50;99.90;;;;;;5105595;28;19920;-71
2022/05/16 12:06:26;;;;;;;;;;;22.60;99.90;;;;;;5080376;28;19921;-70
2022/05/16 12:09:14;;;;;;;;;;;22.70;99.90;;;;;;5081943;28;19971;-71
2022/05/16 12:11:54;;;;;;;;;;;22.80;99.90;;;;;;5089531;28;19920;-71
2022/05/16 12:14:34;;;;;;;;;;;22.90;99.90;;;;;;5088644;28;19919;-70
2022/05/16 12:17:18;;;;;;;;;;;23.10;99.90;;;;;;5122821;28;19927;-70
2022/05/16 12:19:51;;;;;;;;;;;23.10;99.90;;;;;;5096045;28;19920;-71
2022/05/16 12:22:22;;;;;;;;;;;23.20;99.90;;;;;;5071543;28;19961;-70
2022/05/16 12:24:50;;;;;;;;;;;23.40;99.90;;;;;;5108229;28;19979;-71
2022/05/16 12:27:35;;;;;;;;;;;23.50;99.90;;;;;;5077278;28;20347;-69
2022/05/16 12:30:02;;;;;;;;;;;23.40;99.90;;;;;;5102497;28;20391;-70
2022/05/16 12:32:30;;;;;;;;;;;23.40;99.90;;;;;;5102992;28;19921;-68
2022/05/16 12:35:00;;;;;;;;;;;23.20;99.90;;;;;;5109038;28;19925;-70
2022/05/16 12:37:25;;;;;;;;;;;23.10;99.90;;;;;;5078136;28;19920;-70
2022/05/16 12:40:04;;;;;;;;;;;23.10;99.90;;;;;;5088939;28;19927;-69
2022/05/16 12:42:42;;;;;;;;;;;23.00;99.90;;;;;;5089435;28;19920;-70
2022/05/16 12:45:21;;;;;;;;;;;23.10;99.90;;;;;;5089122;28;20093;-68
2022/05/16 12:47:58;;;;;;;;;;;23.30;99.90;;;;;;5088814;28;20286;-70
2022/05/16 12:50:42;;;;;;;;;;;23.50;99.90;;;;;;5069567;28;19928;-69
2022/05/16 12:53:12;;;;;;;;;;;23.30;99.90;;;;;;5107706;28;19920;-71
2022/05/16 12:55:45;;;;;;;;;;;23.20;99.90;;;;;;5088872;28;20021;-68
2022/05/16 12:58:15;;;;;;;;;;;23.00;99.90;;;;;;5088480;28;19920;-68
2022/05/16 13:01:00;;;;;;;;;;;22.90;99.90;;;;;;5090186;28;20038;-68
2022/05/16 13:03:38;;;;;;;;;;;22.80;99.90;;;;;;5092809;28;19920;-70
2022/05/16 13:06:11;;;;;;;;;;;22.80;99.90;;;;;;5092752;28;19920;-71
2022/05/16 13:08:43;;;;;;;;;;;22.80;99.90;;;;;;5090531;28;19920;-69
2022/05/16 13:11:27;;;;;;;;;;;23.00;99.90;;;;;;5072591;28;19921;-70
2022/05/16 13:14:05;;;;;;;;;;;23.20;99.90;;;;;;5106423;28;19990;-72
2022/05/16 13:16:34;;;;;;;;;;;23.40;99.90;;;;;;5113854;27;19928;-70
2022/05/16 13:19:01;;;;;;;;;;;23.70;99.90;;;;;;5091468;28;19931;-71
2022/05/16 13:21:34;;;;;;;;;;;23.80;99.90;;;;;;5092780;28;19920;-70
2022/05/16 13:24:00;;;;;;;;;;;23.90;99.90;;;;;;5105737;28;19928;-72
2022/05/16 13:29:22;;;;;;;;;;;24.00;99.90;;;;;;5091878;28;20447;-70
2022/05/16 13:31:53;;;;;;;;;;;24.20;99.90;;;;;;5092206;28;19928;-71
2022/05/16 13:34:29;;;;;;;;;;;24.30;99.90;;;;;;5087487;28;20398;-71
2022/05/16 13:36:56;;;;;;;;;;;24.40;99.90;;;;;;5072273;28;20367;-70
2022/05/16 13:39:21;;;;;;;;;;;24.30;99.90;;;;;;5083612;28;19970;-70
2022/05/16 13:41:57;;;;;;;;;;;24.20;99.90;;;;;;5079617;28;19956;-70
2022/05/16 13:44:23;;;;;;;;;;;24.00;99.90;;;;;;5110778;27;20023;-70
2022/05/16 13:46:50;;;;;;;;;;;23.80;99.90;;;;;;5085724;28;20014;-72
2022/05/16 13:49:17;;;;;;;;;;;23.60;99.90;;;;;;5090404;28;19924;-70
2022/05/16 13:51:45;;;;;;;;;;;23.50;99.90;;;;;;5092549;28;19920;-71
2022/05/16 13:54:15;;;;;;;;;;;23.50;99.90;;;;;;5083342;28;20358;-71
2022/05/16 13:56:45;;;;;;;;;;;23.50;99.90;;;;;;5092044;28;19924;-71
2022/05/16 13:59:10;;;;;;;;;;;23.40;99.90;;;;;;5091402;28;19920;-71
2022/05/16 14:01:36;;;;;;;;;;;23.40;99.90;;;;;;5091644;28;19961;-69
2022/05/16 14:04:04;;;;;;;;;;;23.30;99.90;;;;;;5093054;28;19920;-71
2022/05/16 14:06:54;;;;;;;;;;;23.00;99.90;;;;;;5091001;28;19943;-72
2022/05/16 14:09:27;;;;;;;;;;;22.80;99.90;;;;;;5104616;28;19921;-71
2022/05/16 14:11:54;;;;;;;;;;;22.50;99.90;;;;;;5072122;28;19971;-70
2022/05/16 14:14:23;;;;;;;;;;;22.40;99.90;;;;;;5071664;28;20019;-71
2022/05/16 14:16:50;;;;;;;;;;;22.30;99.90;;;;;;5104941;28;20430;-68
2022/05/16 14:19:28;;;;;;;;;;;22.30;99.90;;;;;;5113279;27;19920;-70
2022/05/16 14:22:13;;;;;;;;;;;22.10;99.90;;;;;;5091003;28;19920;-71
2022/05/16 14:24:43;;;;;;;;;;;22.00;99.90;;;;;;5091072;28;19946;-70
2022/05/16 14:27:22;;;;;;;;;;;21.70;99.90;;;;;;5074062;28;20394;-69
2022/05/16 14:29:56;;;;;;;;;;;21.60;99.90;;;;;;5080173;28;19928;-70
2022/05/16 14:32:21;;;;;;;;;;;21.40;99.90;;;;;;5091162;28;19920;-70
2022/05/16 14:34:57;;;;;;;;;;;21.30;99.90;;;;;;5090640;28;19938;-71
2022/05/16 14:37:30;;;;;;;;;;;21.20;99.90;;;;;;5090364;28;19928;-71
2022/05/16 14:40:01;;;;;;;;;;;21.10;99.90;;;;;;5090179;28;19950;-68
2022/05/16 14:42:35;;;;;;;;;;;21.00;99.90;;;;;;5086151;28;20027;-69
2022/05/16 14:45:07;;;;;;;;;;;20.90;99.90;;;;;;5074125;28;19954;-68
2022/05/16 14:47:39;;;;;;;;;;;20.70;99.90;;;;;;5090813;28;19922;-69
2022/05/16 14:50:08;;;;;;;;;;;20.50;99.90;;;;;;5089342;28;19920;-70
2022/05/16 14:52:35;;;;;;;;;;;20.50;99.90;;;;;;5081748;28;19979;-69
2022/05/16 14:55:03;;;;;;;;;;;20.30;99.90;;;;;;5103573;27;19955;-68
2022/05/16 14:57:28;;;;;;;;;;;20.10;99.90;;;;;;5104465;28;19972;-71
2022/05/16 14:59:53;;;;;;;;;;;19.80;99.90;;;;;;5089288;28;19983;-69
2022/05/16 15:05:04;;;;;;;;;;;19.20;99.90;;;;;;5070163;28;19950;-69
2022/05/16 15:07:30;;;;;;;;;;;18.80;99.90;;;;;;5085957;28;20375;-68
2022/05/16 15:09:56;;;;;;;;;;;18.70;99.90;;;;;;5089060;28;19927;-67
2022/05/16 15:12:21;;;;;;;;;;;18.60;99.90;;;;;;5090253;28;20302;-66
2022/05/16 15:14:47;;;;;;;;;;;18.50;99.90;;;;;;5088750;28;19971;-68